Time;durP1;ratioP1;P1;durP2;ratioP2;P2;SDS_P1;SDS_P2;PMS_P1;PMS_P2;Temp;Humidity;BMP_temperature;BMP_pressure;BME280_temperature;BME280_humidity;BME280_pressure;Samples;Min_cycle;Max_cycle;Signal;HPM_P1;HPM_P2
2022/03/23 00:02:11;;;;;;;;;29.67;26.33;;;;;23.05;52.54;102521.47;5034116;27;58178;-62
2022/03/23 00:04:38;;;;;;;;;35.00;30.33;;;;;23.03;52.42;102512.53;5015717;28;55331;-62
2022/03/23 00:07:03;;;;;;;;;40.00;29.00;;;;;23.03;52.71;102517.91;5013592;28;45387;-62
2022/03/23 00:09:29;;;;;;;;;34.33;30.67;;;;;23.02;52.34;102515.25;5013841;27;46016;-62
2022/03/23 00:11:54;;;;;;;;;33.33;29.00;;;;;23.01;52.57;102517.06;5013438;28;45487;-62
2022/03/23 00:14:19;;;;;;;;;33.33;28.33;;;;;22.99;52.62;102522.44;5013485;28;46063;-63
2022/03/23 00:16:45;;;;;;;;;35.67;31.00;;;;;22.97;52.53;102524.28;5013598;28;45472;-63
2022/03/23 00:19:10;;;;;;;;;19.33;17.33;;;;;22.99;52.34;102529.63;5018627;27;46467;-62
2022/03/23 00:21:36;;;;;;;;;31.67;30.00;;;;;22.95;52.69;102519.81;5014970;28;45370;-63
2022/03/23 00:24:01;;;;;;;;;34.67;30.33;;;;;22.98;52.67;102533.25;5021531;28;45354;-63
2022/03/23 00:26:27;;;;;;;;;38.67;33.67;;;;;22.91;52.42;102518.97;5025564;28;45481;-63
2022/03/23 00:28:54;;;;;;;;;26.67;25.67;;;;;22.96;52.50;102532.38;5013669;28;46621;-63
2022/03/23 00:31:20;;;;;;;;;32.67;28.67;;;;;22.96;52.64;102527.88;5015188;27;45331;-63
2022/03/23 00:33:47;;;;;;;;;36.33;31.00;;;;;22.96;52.48;102532.38;5013302;28;45320;-62
2022/03/23 00:36:12;;;;;;;;;26.33;26.33;;;;;22.94;52.95;102532.38;5013151;27;45465;-62
2022/03/23 00:38:38;;;;;;;;;37.00;30.00;;;;;22.95;52.66;102525.19;5025399;28;46153;-63
2022/03/23 00:41:03;;;;;;;;;34.67;33.33;;;;;22.92;52.82;102534.22;5013852;28;45522;-62
2022/03/23 00:43:29;;;;;;;;;34.00;30.33;;;;;22.93;52.64;102527.03;5013063;28;45522;-63
2022/03/23 00:45:55;;;;;;;;;36.67;27.67;;;;;22.92;52.63;102526.13;5012862;27;47384;-62
2022/03/23 00:48:20;;;;;;;;;27.33;26.67;;;;;22.92;52.72;102526.13;5039993;27;47355;-63
2022/03/23 00:50:46;;;;;;;;;41.00;33.67;;;;;22.91;52.96;102524.38;5012988;28;45421;-62
2022/03/23 00:53:11;;;;;;;;;36.00;29.67;;;;;22.90;52.59;102527.94;5012777;28;45299;-63
2022/03/23 00:55:36;;;;;;;;;29.00;27.33;;;;;22.88;52.80;102521.69;5021309;28;53544;-63
2022/03/23 00:58:02;;;;;;;;;35.00;29.33;;;;;22.91;52.42;102529.75;5059979;27;62252;-63
2022/03/23 01:00:27;;;;;;;;;31.67;26.00;;;;;22.90;52.63;102533.31;5012483;28;56189;-62
2022/03/23 01:02:53;;;;;;;;;32.00;27.67;;;;;22.87;52.50;102519.00;5012187;28;58737;-63
2022/03/23 01:05:19;;;;;;;;;36.00;31.33;;;;;22.89;52.70;102530.66;5012933;28;45149;-63
2022/03/23 01:07:44;;;;;;;;;29.00;28.67;;;;;22.89;52.72;102526.16;5044676;27;47465;-63
2022/03/23 01:10:11;;;;;;;;;30.33;29.00;;;;;22.88;52.93;102537.84;5013853;28;46085;-63
2022/03/23 01:12:38;;;;;;;;;28.33;28.00;;;;;22.88;52.45;102529.78;5018583;28;45575;-63
2022/03/23 01:15:04;;;;;;;;;34.00;30.67;;;;;22.88;52.70;102532.47;5020170;28;45553;-62
2022/03/23 01:17:30;;;;;;;;;31.67;29.33;;;;;22.86;52.65;102526.19;5015057;28;46133;-63
2022/03/23 01:19:56;;;;;;;;;37.00;33.67;;;;;22.87;52.50;102519.88;5015527;28;45302;-63
2022/03/23 01:22:21;;;;;;;;;33.00;27.67;;;;;22.87;52.72;102527.97;5015455;28;45270;-63
2022/03/23 01:24:47;;;;;;;;;31.33;29.00;;;;;22.84;52.50;102517.22;5015554;28;49015;-63
2022/03/23 01:27:12;;;;;;;;;29.33;27.67;;;;;22.84;52.69;102519.91;5015401;28;46031;-63
2022/03/23 01:29:38;;;;;;;;;35.67;30.67;;;;;22.85;52.55;102523.50;5014509;28;45527;-62
2022/03/23 01:32:05;;;;;;;;;30.67;28.33;;;;;22.86;52.72;102528.88;5026348;27;45260;-62
2022/03/23 01:34:30;;;;;;;;;27.67;26.00;;;;;22.84;52.74;102517.22;5021382;27;45556;-63
2022/03/23 01:36:55;;;;;;;;;34.67;30.00;;;;;22.87;52.92;102524.38;5015431;28;46578;-63
2022/03/23 01:39:21;;;;;;;;;35.67;31.67;;;;;22.87;52.67;102517.19;5021739;28;57275;-63
2022/03/23 01:41:46;;;;;;;;;31.33;28.33;;;;;22.84;52.96;102514.53;5017333;28;56753;-63
2022/03/23 01:44:22;;;;;;;;;29.67;28.33;;;;;22.86;52.44;102512.72;5024468;28;54564;-62
2022/03/23 01:47:09;;;;;;;;;33.00;28.33;;;;;22.85;52.46;102519.03;5035282;27;46764;-63
2022/03/23 01:49:43;;;;;;;;;29.00;28.33;;;;;22.80;52.64;102504.72;5027289;28;45507;-63
2022/03/23 01:52:10;;;;;;;;;36.00;31.33;;;;;22.84;52.71;102513.63;5019971;28;45326;-63
2022/03/23 01:54:36;;;;;;;;;31.67;28.67;;;;;22.86;52.40;102515.41;5026894;27;45606;-63
2022/03/23 01:57:02;;;;;;;;;29.00;29.00;;;;;22.86;52.73;102512.72;5015292;28;47159;-63
2022/03/23 01:59:27;;;;;;;;;32.67;30.33;;;;;22.85;52.68;102507.34;5014566;28;45532;-62
2022/03/23 02:01:53;;;;;;;;;32.33;25.67;;;;;22.86;52.87;102515.41;5019314;27;45348;-63
2022/03/23 02:04:19;;;;;;;;;32.33;25.00;;;;;22.86;52.68;102518.09;5015193;28;45493;-63
2022/03/23 02:06:44;;;;;;;;;33.00;30.67;;;;;22.87;52.93;102511.81;5015060;28;47242;-63
2022/03/23 02:09:09;;;;;;;;;39.67;32.00;;;;;22.86;52.60;102512.72;5023574;28;45720;-63
2022/03/23 02:11:35;;;;;;;;;31.67;31.00;;;;;22.86;52.69;102501.94;5014996;28;51208;-63
2022/03/23 02:14:00;;;;;;;;;34.33;31.33;;;;;22.88;52.84;102512.72;5016389;28;53185;-62
2022/03/23 02:16:25;;;;;;;;;35.00;27.67;;;;;22.87;52.88;102514.50;5014187;28;63986;-63
2022/03/23 02:18:51;;;;;;;;;31.00;28.67;;;;;22.87;52.95;102516.31;5025565;28;61307;-63
2022/03/23 02:21:16;;;;;;;;;25.67;23.67;;;;;22.85;52.81;102507.34;5014499;28;57950;-63
2022/03/23 02:23:42;;;;;;;;;28.67;25.67;;;;;22.87;52.83;102508.22;4997167;28;45485;-63
2022/03/23 02:26:08;;;;;;;;;31.67;27.33;;;;;22.86;52.79;102506.44;5022837;28;46592;-63
2022/03/23 02:28:34;;;;;;;;;33.33;29.67;;;;;22.85;52.66;102516.34;5018001;28;45281;-63
2022/03/23 02:31:01;;;;;;;;;26.33;26.33;;;;;22.86;52.94;102504.63;5012075;27;45500;-63
2022/03/23 02:33:26;;;;;;;;;32.67;30.33;;;;;22.86;52.85;102509.13;5046705;27;45361;-63
2022/03/23 02:35:52;;;;;;;;;30.00;29.00;;;;;22.86;53.06;102509.13;5015527;28;61250;-62
2022/03/23 02:38:17;;;;;;;;;31.00;29.67;;;;;22.84;52.91;102511.84;5015887;28;54735;-62
2022/03/23 02:40:43;;;;;;;;;31.67;30.67;;;;;22.85;53.07;102505.56;5025914;28;45320;-63
2022/03/23 02:43:09;;;;;;;;;32.33;28.67;;;;;22.86;52.75;102517.22;5022860;28;45306;-63
2022/03/23 02:45:35;;;;;;;;;30.00;25.33;;;;;22.84;52.73;102511.84;5018748;28;46821;-62
2022/03/23 02:48:00;;;;;;;;;30.33;30.00;;;;;22.85;52.85;102515.41;5014559;28;45217;-63
2022/03/23 02:50:26;;;;;;;;;32.33;30.33;;;;;22.85;52.73;102521.72;5014700;28;45414;-63
2022/03/23 03:03:54;;;;;;;;;31.00;27.00;;;;;22.88;52.96;102528.88;5025131;28;45316;-63
2022/03/23 03:06:19;;;;;;;;;37.67;29.00;;;;;22.89;52.93;102534.25;5018881;28;61379;-63
2022/03/23 03:08:44;;;;;;;;;28.00;26.67;;;;;22.91;53.05;102540.53;5016788;28;61357;-63
2022/03/23 03:11:10;;;;;;;;;31.00;27.00;;;;;22.91;52.99;102535.13;5014114;28;54192;-63
2022/03/23 03:13:35;;;;;;;;;33.00;30.33;;;;;22.91;53.16;102529.75;5013739;28;53499;-63
2022/03/23 03:16:05;;;;;;;;;26.67;25.67;;;;;22.93;53.09;102545.88;5022922;28;64019;-63
2022/03/23 03:18:31;;;;;;;;;33.33;30.33;;;;;22.93;52.95;102541.38;5017469;28;45304;-63
2022/03/23 03:20:57;;;;;;;;;31.00;25.00;;;;;22.92;52.84;102541.41;5017388;28;45499;-63
2022/03/23 03:23:23;;;;;;;;;32.33;28.00;;;;;22.93;53.11;102546.78;5014192;28;45460;-63
2022/03/23 03:25:48;;;;;;;;;32.00;28.00;;;;;22.94;52.89;102544.97;5014039;28;47358;-63
2022/03/23 03:28:14;;;;;;;;;25.33;25.33;;;;;22.93;52.80;102541.38;5013464;28;54338;-63
2022/03/23 03:30:39;;;;;;;;;25.33;24.33;;;;;22.93;52.88;102541.38;5017074;28;55848;-63
2022/03/23 03:33:04;;;;;;;;;26.00;25.00;;;;;22.92;52.97;102555.78;5015537;28;54644;-63
2022/03/23 03:35:30;;;;;;;;;27.00;23.33;;;;;22.92;52.53;102555.78;5013256;28;60651;-63
2022/03/23 03:37:55;;;;;;;;;28.67;24.33;;;;;22.92;52.98;102563.84;5024631;28;57732;-63
2022/03/23 03:40:20;;;;;;;;;26.00;21.67;;;;;22.91;52.90;102556.69;5015066;28;55420;-62
2022/03/23 03:42:46;;;;;;;;;24.67;23.33;;;;;22.89;52.86;102560.28;5017604;28;54184;-63
2022/03/23 03:45:11;;;;;;;;;20.00;20.00;;;;;22.90;52.65;102565.66;5013169;28;60677;-63
2022/03/23 03:47:37;;;;;;;;;28.33;22.00;;;;;22.88;52.87;102558.53;5013702;28;45408;-63
2022/03/23 03:50:03;;;;;;;;;21.67;20.33;;;;;22.90;52.93;102570.16;5013428;28;56725;-63
2022/03/23 03:52:28;;;;;;;;;23.00;19.33;;;;;22.89;52.85;102568.38;5013948;28;45230;-62
2022/03/23 03:54:53;;;;;;;;;21.33;19.33;;;;;22.88;52.80;102566.59;5014048;28;60608;-62
2022/03/23 03:57:19;;;;;;;;;22.67;21.67;;;;;22.88;52.75;102567.50;5013834;28;45509;-63
2022/03/23 03:59:44;;;;;;;;;20.67;18.00;;;;;22.86;52.34;102574.69;5024173;28;45132;-62
2022/03/23 04:02:10;;;;;;;;;23.00;20.67;;;;;22.84;52.75;102576.47;5013689;28;47823;-63
2022/03/23 04:04:35;;;;;;;;;20.00;20.00;;;;;22.86;52.80;102576.47;5012042;28;58329;-63
2022/03/23 04:07:01;;;;;;;;;20.67;18.67;;;;;22.86;52.72;102581.88;5013572;28;45464;-62
2022/03/23 04:09:27;;;;;;;;;20.00;19.00;;;;;22.84;52.44;102581.88;5013431;28;45347;-63
2022/03/23 04:11:52;;;;;;;;;20.00;19.33;;;;;22.84;52.58;102579.16;4996024;28;45370;-62
2022/03/23 04:14:18;;;;;;;;;17.67;17.67;;;;;22.84;52.28;102575.59;5012631;28;61173;-62
2022/03/23 04:16:43;;;;;;;;;19.33;17.33;;;;;22.82;52.45;102581.00;5013624;28;45472;-63
2022/03/23 04:19:09;;;;;;;;;18.67;16.00;;;;;22.82;52.70;102583.69;5025939;28;45670;-63
2022/03/23 04:21:34;;;;;;;;;18.00;15.67;;;;;22.79;52.59;102581.03;5014633;28;45584;-63
2022/03/23 04:24:00;;;;;;;;;17.33;17.33;;;;;22.80;52.21;102580.16;5012886;28;47677;-63
2022/03/23 04:26:25;;;;;;;;;17.67;16.67;;;;;22.80;52.08;102590.91;5013607;28;45459;-63
2022/03/23 04:28:51;;;;;;;;;17.33;17.33;;;;;22.80;52.35;102584.59;5012358;28;45334;-63
2022/03/23 04:31:16;;;;;;;;;18.00;16.67;;;;;22.78;52.35;102584.63;5015596;28;45468;-62
2022/03/23 04:33:42;;;;;;;;;13.67;13.67;;;;;22.78;52.36;102587.34;5020963;28;47438;-63
2022/03/23 04:36:08;;;;;;;;;16.00;16.00;;;;;22.80;52.48;102592.69;5015730;28;45418;-63
2022/03/23 04:38:33;;;;;;;;;17.67;15.00;;;;;22.80;52.49;102592.69;5016014;28;45366;-63
2022/03/23 04:40:58;;;;;;;;;14.67;14.00;;;;;22.80;52.41;102596.31;5020214;28;48893;-62
2022/03/23 04:43:24;;;;;;;;;20.00;16.67;;;;;22.80;52.45;102596.31;5012843;28;45767;-62
2022/03/23 04:45:49;;;;;;;;;18.00;14.67;;;;;22.80;52.12;102603.47;5014354;28;54932;-63
2022/03/23 04:48:15;;;;;;;;;19.33;17.00;;;;;22.80;52.21;102601.69;5015883;28;54320;-63
2022/03/23 04:50:40;;;;;;;;;18.67;16.67;;;;;22.80;52.16;102609.78;5020858;28;54120;-63
2022/03/23 04:53:06;;;;;;;;;14.00;14.00;;;;;22.79;52.43;102607.06;5017226;28;46543;-62
2022/03/23 04:55:31;;;;;;;;;13.33;13.00;;;;;22.80;52.47;102612.47;5017472;28;45377;-63
2022/03/23 04:58:00;;;;;;;;;18.00;15.33;;;;;22.79;51.99;102616.03;5016217;28;45579;-63
2022/03/23 05:00:25;;;;;;;;;19.33;17.00;;;;;22.80;52.09;102619.63;5016350;28;45321;-62
2022/03/23 05:02:50;;;;;;;;;18.67;17.00;;;;;22.79;52.08;102617.84;5015308;28;56260;-63
2022/03/23 05:05:16;;;;;;;;;17.33;13.00;;;;;22.78;52.01;102616.97;5016027;28;45324;-62
2022/03/23 05:07:42;;;;;;;;;15.00;15.00;;;;;22.78;52.09;102610.69;5016090;28;45318;-63
2022/03/23 05:10:08;;;;;;;;;19.00;14.33;;;;;22.75;52.44;102606.25;5016002;27;45429;-62
2022/03/23 05:12:37;;;;;;;;;16.00;14.33;;;;;22.78;52.04;102608.00;5015661;28;47536;-63
2022/03/23 05:15:04;;;;;;;;;15.33;15.33;;;;;22.79;51.95;102615.16;5017341;28;45217;-62
2022/03/23 05:17:30;;;;;;;;;17.67;14.33;;;;;22.79;52.07;102613.34;5019409;28;45482;-62
2022/03/23 05:19:55;;;;;;;;;16.33;15.67;;;;;22.78;51.78;102613.38;5020838;28;45487;-63
2022/03/23 05:22:21;;;;;;;;;15.67;15.67;;;;;22.77;52.03;102615.19;5015257;28;47145;-63
2022/03/23 05:24:47;;;;;;;;;18.67;17.00;;;;;22.76;52.09;102610.72;5015974;28;45487;-62
2022/03/23 05:27:12;;;;;;;;;17.00;16.00;;;;;22.79;52.26;102620.53;5030433;28;45279;-63
2022/03/23 05:29:37;;;;;;;;;21.00;16.33;;;;;22.78;51.69;102616.06;5024712;28;45505;-62
2022/03/23 05:32:03;;;;;;;;;19.00;15.33;;;;;22.77;51.74;102615.19;5020512;28;46677;-62
2022/03/23 05:34:28;;;;;;;;;15.33;14.67;;;;;22.78;51.86;102626.84;5021990;28;45395;-63
2022/03/23 05:36:54;;;;;;;;;15.67;15.00;;;;;22.78;51.90;102625.03;5015371;28;45588;-63
2022/03/23 05:41:55;;;;;;;;;12.67;11.33;;;;;22.77;52.30;102631.34;5018708;26;45410;-63
2022/03/23 05:44:20;;;;;;;;;16.67;15.00;;;;;22.77;52.11;102631.34;5038133;28;45347;-63
2022/03/23 05:46:45;;;;;;;;;17.33;16.00;;;;;22.74;52.18;102621.50;5037977;28;52929;-63
2022/03/23 05:49:11;;;;;;;;;16.33;15.67;;;;;22.75;51.90;102635.88;5038036;28;48463;-63
2022/03/23 05:51:36;;;;;;;;;13.67;13.67;;;;;22.78;51.92;102629.53;5037520;28;59559;-63
2022/03/23 05:54:02;;;;;;;;;15.00;15.00;;;;;22.76;52.00;102637.63;5038016;28;48390;-63
2022/03/23 05:56:27;;;;;;;;;15.33;15.33;;;;;22.74;51.72;102624.19;5037580;28;45325;-62
2022/03/23 05:58:53;;;;;;;;;15.67;14.67;;;;;22.72;51.79;102627.81;5038447;28;45469;-62
2022/03/23 06:01:18;;;;;;;;;14.00;13.00;;;;;22.73;51.76;102629.59;5037421;28;47258;-63
2022/03/23 06:03:44;;;;;;;;;16.00;15.00;;;;;22.74;51.47;102631.34;5037373;28;45557;-63
2022/03/23 06:06:09;;;;;;;;;16.33;14.67;;;;;22.73;51.59;102632.28;5037559;28;45486;-63
2022/03/23 06:08:35;;;;;;;;;13.67;12.67;;;;;22.73;51.87;102626.88;5037157;28;45271;-62
2022/03/23 06:11:00;;;;;;;;;15.33;15.33;;;;;22.72;52.11;102631.38;5034286;28;46862;-62
2022/03/23 06:13:26;;;;;;;;;16.00;14.00;;;;;22.69;51.79;102625.13;5037818;28;45549;-63
2022/03/23 06:15:51;;;;;;;;;20.00;13.67;;;;;22.71;52.11;102632.31;5037472;28;56209;-63
2022/03/23 06:18:16;;;;;;;;;15.33;14.00;;;;;22.71;51.93;102629.59;5037061;28;45488;-62
2022/03/23 06:20:42;;;;;;;;;14.67;12.00;;;;;22.70;51.99;102630.53;5036467;28;60774;-62
2022/03/23 06:23:07;;;;;;;;;18.67;15.00;;;;;22.71;51.78;102636.78;5036679;28;45620;-62
2022/03/23 06:25:33;;;;;;;;;18.33;17.00;;;;;22.71;51.98;102636.78;5033348;28;45992;-62
2022/03/23 06:27:58;;;;;;;;;23.33;21.00;;;;;22.51;49.02;102637.00;5035443;28;50854;-62
2022/03/23 06:30:23;;;;;;;;;20.67;19.00;;;;;22.16;47.32;102653.47;5036359;28;65179;-62
2022/03/23 06:32:49;;;;;;;;;24.67;22.67;;;;;21.76;46.50;102642.97;5035957;28;58312;-63
2022/03/23 06:35:16;;;;;;;;;25.33;24.00;;;;;21.37;45.51;102650.34;5035478;28;56329;-64
2022/03/23 06:37:42;;;;;;;;;27.00;23.00;;;;;21.01;45.58;102655.84;5032658;28;45507;-63
2022/03/23 06:40:07;;;;;;;;;28.00;26.00;;;;;20.67;44.93;102661.31;5033470;28;47554;-62
2022/03/23 06:42:33;;;;;;;;;24.00;22.33;;;;;20.35;45.11;102670.25;5035103;28;45407;-62
2022/03/23 06:44:58;;;;;;;;;29.33;26.67;;;;;20.04;44.85;102673.81;5035744;28;45456;-62
2022/03/23 06:47:24;;;;;;;;;31.00;27.33;;;;;19.79;44.43;102675.53;5036747;28;45543;-61
2022/03/23 06:49:49;;;;;;;;;29.33;28.00;;;;;19.54;44.46;102669.16;5036322;28;46940;-61
2022/03/23 06:52:15;;;;;;;;;29.00;28.00;;;;;19.31;44.35;102680.69;5037085;28;45288;-61
2022/03/23 06:54:41;;;;;;;;;40.00;30.67;;;;;19.09;44.76;102681.50;5035963;28;45928;-62
2022/03/23 06:57:06;;;;;;;;;35.75;30.50;;;;;18.83;44.61;102682.22;5036971;28;45371;-61
2022/03/23 06:59:32;;;;;;;;;32.67;30.33;;;;;18.62;45.11;102682.06;5036499;28;59005;-62
2022/03/23 07:01:57;;;;;;;;;35.50;30.75;;;;;18.45;45.13;102689.94;5036809;28;45443;-62
2022/03/23 07:04:25;;;;;;;;;31.67;30.00;;;;;18.25;45.08;102695.13;5033669;28;45786;-60
2022/03/23 07:06:52;;;;;;;;;34.00;29.75;;;;;18.12;45.20;102706.59;5036335;28;45422;-63
2022/03/23 07:09:32;;;;;;;;;36.50;31.00;;;;;17.96;45.68;102707.34;5028583;28;46541;-62
2022/03/23 07:11:59;;;;;;;;;33.25;29.25;;;;;17.84;45.61;102717.88;5032733;28;45478;-62
2022/03/23 07:14:26;;;;;;;;;39.25;32.75;;;;;17.71;45.56;102703.44;5035198;28;45441;-63
2022/03/23 07:16:51;;;;;;;;;33.75;31.25;;;;;17.59;45.94;102709.56;5027223;28;45725;-63
2022/03/23 07:19:17;;;;;;;;;38.00;33.00;;;;;17.49;45.98;102711.22;5033470;28;45580;-63
2022/03/23 07:21:42;;;;;;;;;39.75;31.25;;;;;17.42;45.98;102712.03;5034078;28;45364;-63
2022/03/23 07:24:08;;;;;;;;;38.00;30.75;;;;;17.34;46.20;102713.69;5033045;28;55096;-64
2022/03/23 07:26:33;;;;;;;;;37.25;31.25;;;;;17.24;46.04;102707.31;5031844;28;45280;-64
2022/03/23 07:29:00;;;;;;;;;40.75;32.00;;;;;17.16;47.36;102703.66;5033432;28;62605;-63
2022/03/23 07:31:25;;;;;;;;;31.25;28.50;;;;;17.31;48.30;102713.66;5034216;28;45466;-63
2022/03/23 07:33:50;;;;;;;;;31.25;27.25;;;;;17.53;48.83;102713.03;5033188;28;51687;-63
2022/03/23 07:36:16;;;;;;;;;32.25;27.50;;;;;17.80;48.74;102722.31;5033696;28;45548;-63
2022/03/23 07:38:41;;;;;;;;;30.00;26.00;;;;;18.05;49.16;102720.75;5033028;28;46442;-63
2022/03/23 07:41:07;;;;;;;;;30.50;29.75;;;;;18.27;49.23;102713.88;5035116;28;45660;-63
2022/03/23 07:43:32;;;;;;;;;29.33;24.00;;;;;18.53;49.07;102716.75;5032054;28;45537;-63
2022/03/23 07:45:58;;;;;;;;;25.33;23.33;;;;;18.74;49.60;102708.94;5037232;28;45467;-63
2022/03/23 07:48:24;;;;;;;;;26.67;22.67;;;;;18.99;49.76;102722.50;5034174;28;47169;-64
2022/03/23 07:50:52;;;;;;;;;28.00;24.00;;;;;19.19;49.73;102714.59;5034855;28;45494;-63
2022/03/23 07:53:18;;;;;;;;;25.67;23.00;;;;;19.36;49.61;102716.44;5036212;28;45192;-63
2022/03/23 07:55:43;;;;;;;;;25.33;22.00;;;;;19.53;49.26;102720.97;5032711;28;45489;-63
2022/03/23 07:58:09;;;;;;;;;22.00;22.00;;;;;19.69;49.60;102719.28;5034046;28;63097;-64
2022/03/23 08:00:34;;;;;;;;;27.67;22.33;;;;;19.83;49.74;102720.25;5037656;28;61348;-64
2022/03/23 08:02:59;;;;;;;;;23.33;19.33;;;;;19.96;49.26;102721.16;5025286;28;45982;-64
2022/03/23 08:05:25;;;;;;;;;22.33;19.00;;;;;20.07;49.77;102719.38;5036813;28;56781;-63
2022/03/23 08:07:51;;;;;;;;;22.33;20.33;;;;;20.16;49.40;102714.03;5034408;28;46234;-64
2022/03/23 08:10:16;;;;;;;;;21.33;19.00;;;;;20.29;49.85;102726.56;5035602;28;45464;-63
2022/03/23 08:12:42;;;;;;;;;25.33;24.00;;;;;20.39;49.49;102731.03;5036081;28;49922;-64
2022/03/23 08:15:09;;;;;;;;;20.33;19.00;;;;;20.48;49.72;102735.56;5034703;28;45459;-64
2022/03/23 08:17:37;;;;;;;;;22.67;19.33;;;;;20.54;49.95;102727.50;5035021;28;46006;-63
2022/03/23 08:22:46;;;;;;;;;21.00;17.00;;;;;20.74;49.64;102734.66;5035518;28;45443;-63
2022/03/23 08:25:11;;;;;;;;;23.67;19.33;;;;;20.81;49.91;102734.66;5032587;28;52719;-64
2022/03/23 08:27:37;;;;;;;;;22.33;18.67;;;;;20.88;50.13;102736.44;5034859;28;46386;-63
2022/03/23 08:30:02;;;;;;;;;21.33;17.67;;;;;20.93;50.16;102733.72;5035087;28;45497;-63
2022/03/23 08:32:28;;;;;;;;;19.67;17.67;;;;;21.01;50.22;102737.31;5032309;28;45499;-61
2022/03/23 08:34:53;;;;;;;;;17.33;16.33;;;;;21.05;50.23;102733.72;5034598;28;53561;-61
2022/03/23 08:37:19;;;;;;;;;20.00;19.00;;;;;21.10;50.88;102737.31;5036361;28;64758;-64
2022/03/23 08:39:44;;;;;;;;;24.00;19.00;;;;;21.15;51.31;102746.25;5034327;28;45527;-62
2022/03/23 08:42:09;;;;;;;;;22.33;17.67;;;;;21.19;50.88;102737.25;5036665;28;45778;-64
2022/03/23 08:44:35;;;;;;;;;18.33;18.33;;;;;21.24;51.21;102744.41;5034717;28;48755;-63
2022/03/23 08:47:00;;;;;;;;;17.67;17.00;;;;;21.27;52.07;102739.03;5031990;28;46592;-61
2022/03/23 08:49:26;;;;;;;;;18.00;17.67;;;;;21.30;51.83;102739.94;5032433;28;57516;-63
2022/03/23 08:51:51;;;;;;;;;22.67;17.00;;;;;21.34;52.26;102743.53;5032603;28;58018;-63
2022/03/23 08:54:16;;;;;;;;;15.00;15.00;;;;;21.37;52.22;102736.34;5032990;28;46540;-64
2022/03/23 08:56:42;;;;;;;;;16.00;16.00;;;;;21.41;52.33;102745.28;5033788;28;60738;-64
2022/03/23 08:59:07;;;;;;;;;18.33;17.00;;;;;21.44;52.53;102739.91;5033363;28;45237;-63
2022/03/23 09:01:33;;;;;;;;;21.33;18.00;;;;;21.46;52.96;102746.16;5031964;28;56847;-63
2022/03/23 09:04:03;;;;;;;;;20.67;17.67;;;;;21.49;53.39;102743.47;5033637;28;54173;-63
2022/03/23 09:06:29;;;;;;;;;16.33;15.00;;;;;21.51;53.38;102744.34;5035510;28;46549;-63
2022/03/23 09:08:54;;;;;;;;;20.33;15.00;;;;;21.52;53.86;102750.63;5034396;28;45463;-63
2022/03/23 09:11:20;;;;;;;;;20.33;18.00;;;;;21.55;53.85;102748.81;5036016;28;45308;-65
2022/03/23 09:13:47;;;;;;;;;17.00;14.33;;;;;21.56;53.85;102739.84;5037713;28;56603;-65
2022/03/23 09:16:12;;;;;;;;;15.67;15.67;;;;;21.60;53.77;102743.44;5033039;28;46422;-63
2022/03/23 09:18:37;;;;;;;;;16.33;15.33;;;;;21.62;54.42;102749.69;5033865;28;45518;-64
2022/03/23 09:21:03;;;;;;;;;18.67;16.33;;;;;21.64;54.64;102737.16;5032451;28;58419;-63
2022/03/23 09:23:28;;;;;;;;;19.67;15.33;;;;;21.65;54.62;102745.19;5032293;28;53633;-65
2022/03/23 09:25:53;;;;;;;;;15.33;15.33;;;;;21.65;54.67;102744.31;5040689;28;47145;-63
2022/03/23 09:28:20;;;;;;;;;14.33;14.33;;;;;21.68;54.72;102747.88;5033068;28;45593;-64
2022/03/23 09:30:45;;;;;;;;;15.67;15.00;;;;;21.70;54.68;102748.75;5035865;28;45541;-62
2022/03/23 09:33:10;;;;;;;;;18.33;17.00;;;;;21.70;54.73;102745.19;5038694;28;45420;-63
2022/03/23 09:35:36;;;;;;;;;15.00;13.00;;;;;21.73;54.71;102750.53;5036747;28;59278;-63
2022/03/23 09:38:03;;;;;;;;;17.00;15.33;;;;;21.75;54.97;102742.47;5036497;28;45348;-64
2022/03/23 09:40:31;;;;;;;;;16.33;14.33;;;;;21.76;55.37;102741.56;5052980;28;45457;-63
2022/03/23 09:42:56;;;;;;;;;14.67;14.00;;;;;21.76;55.65;102742.47;5034490;28;45455;-63
2022/03/23 09:48:00;;;;;;;;;15.00;15.00;;;;;21.81;55.25;102745.13;5037429;28;45332;-63
2022/03/23 09:50:29;;;;;;;;;14.00;14.00;;;;;21.82;55.70;102747.81;5035691;28;45463;-63
2022/03/23 09:52:56;;;;;;;;;17.00;15.67;;;;;21.85;55.89;102750.47;5035982;28;45557;-64
2022/03/23 09:55:21;;;;;;;;;15.33;15.33;;;;;21.85;56.13;102742.41;5035979;28;47475;-63
2022/03/23 09:57:46;;;;;;;;;12.33;11.00;;;;;21.88;56.17;102752.25;5033992;28;58067;-64
2022/03/23 10:00:13;;;;;;;;;13.33;13.33;;;;;21.90;56.30;102742.41;5035451;28;45579;-64
2022/03/23 10:02:39;;;;;;;;;18.67;14.33;;;;;21.90;55.86;102745.97;5040565;28;45597;-65
2022/03/23 10:05:29;;;;;;;;;15.67;14.33;;;;;21.90;56.08;102743.28;5036365;28;45919;-63
2022/03/23 10:08:09;;;;;;;;;18.00;13.67;;;;;21.92;56.22;102745.97;5035705;28;45425;-62
2022/03/23 10:11:19;;;;;;;;;15.33;12.00;;;;;21.93;56.75;102737.88;5036509;28;45517;-63
2022/03/23 10:14:22;;;;;;;;;13.00;12.00;;;;;21.95;56.19;102738.78;5026529;28;45450;-63
2022/03/23 10:17:31;;;;;;;;;15.00;14.00;;;;;21.96;56.76;102742.34;5035629;28;46588;-63
2022/03/23 10:19:57;;;;;;;;;15.67;13.33;;;;;21.97;57.00;102736.06;5033444;28;45528;-65
2022/03/23 10:22:26;;;;;;;;;19.00;14.33;;;;;21.94;56.99;102730.69;5033734;28;56427;-64
2022/03/23 10:24:51;;;;;;;;;13.33;13.33;;;;;22.01;56.87;102734.25;5035554;28;45377;-64
2022/03/23 10:27:24;;;;;;;;;14.33;14.33;;;;;22.01;56.95;102742.34;5035408;28;63710;-62
2022/03/23 10:29:53;;;;;;;;;16.00;13.00;;;;;22.02;57.27;102746.81;5033737;28;45506;-66
2022/03/23 10:32:21;;;;;;;;;14.33;13.33;;;;;22.01;56.88;102735.16;5033871;28;45355;-63
2022/03/23 10:34:54;;;;;;;;;16.67;14.00;;;;;22.04;56.88;102739.59;5036133;28;47307;-64
2022/03/23 10:37:30;;;;;;;;;11.00;10.00;;;;;22.04;56.80;102735.13;5036208;28;47504;-63
2022/03/23 10:39:56;;;;;;;;;14.33;12.00;;;;;22.04;57.42;102723.47;5036280;28;45358;-65
2022/03/23 10:42:24;;;;;;;;;13.33;12.00;;;;;22.07;57.26;102728.84;5033115;28;45684;-62
2022/03/23 10:44:49;;;;;;;;;15.67;13.33;;;;;22.08;57.82;102730.63;5032102;28;45816;-62
2022/03/23 10:47:25;;;;;;;;;14.33;13.67;;;;;22.11;57.80;102722.56;5035840;28;46681;-63
2022/03/23 10:49:51;;;;;;;;;14.33;14.33;;;;;22.07;57.61;102721.66;5037179;28;45551;-63
2022/03/23 10:52:17;;;;;;;;;13.33;13.00;;;;;22.12;57.25;102717.19;5035552;28;52744;-65
2022/03/23 10:55:01;;;;;;;;;16.33;13.33;;;;;22.15;57.62;102718.94;5039370;28;45687;-65
2022/03/23 10:57:59;;;;;;;;;14.33;12.67;;;;;22.17;57.94;102717.16;5034816;28;45438;-63
2022/03/23 11:00:38;;;;;;;;;13.33;12.00;;;;;22.17;57.56;102715.34;5022213;28;45659;-64
2022/03/23 11:03:05;;;;;;;;;16.33;12.67;;;;;22.17;57.53;102711.75;5033133;28;45586;-65
2022/03/23 11:05:32;;;;;;;;;16.67;13.67;;;;;22.20;57.63;102711.72;5035712;28;45619;-65
2022/03/23 11:08:22;;;;;;;;;15.67;12.00;;;;;22.22;57.68;102705.44;5034398;28;47439;-64
2022/03/23 11:16:26;;;;;;;;;13.00;12.33;;;;;22.25;57.87;102700.94;5032874;28;45497;-62
2022/03/23 11:18:57;;;;;;;;;10.67;10.67;;;;;22.24;57.48;102700.03;5037111;28;46542;-63
2022/03/23 11:21:22;;;;;;;;;16.00;11.67;;;;;22.28;57.52;102698.22;5052771;28;45419;-61
2022/03/23 11:23:47;;;;;;;;;13.67;12.00;;;;;22.28;57.62;102701.81;5036294;28;59409;-59
2022/03/23 11:26:13;;;;;;;;;17.33;11.33;;;;;22.30;58.05;102696.41;5035009;28;45553;-61
2022/03/23 11:28:43;;;;;;;;;13.33;13.33;;;;;22.31;58.00;102687.41;5035748;28;56158;-60
2022/03/23 11:31:09;;;;;;;;;14.33;13.00;;;;;22.31;57.56;102676.66;5035478;28;45363;-59
2022/03/23 11:33:35;;;;;;;;;15.00;13.67;;;;;22.33;57.87;102688.31;5035451;28;45292;-60